createdAt,value
2018-12-27T00:00:05.973Z,17.40
2018-12-27T00:02:34.321Z,17.03
2018-12-27T00:05:02.741Z,17.20
2018-12-27T00:07:31.053Z,19.30
2018-12-27T00:09:59.390Z,18.67
2018-12-27T00:12:27.734Z,18.27
2018-12-27T00:14:56.089Z,18.92
2018-12-27T00:17:24.431Z,18.20
2018-12-27T00:19:52.798Z,18.13
2018-12-27T00:22:21.137Z,18.60
2018-12-27T00:24:49.503Z,19.47
2018-12-27T00:27:17.880Z,19.47
2018-12-27T00:29:46.246Z,17.20
2018-12-27T00:32:15.376Z,19.23
2018-12-27T00:34:43.730Z,20.40
2018-12-27T00:37:12.175Z,20.40
2018-12-27T00:39:40.511Z,17.80
2018-12-27T00:42:08.825Z,18.67
2018-12-27T00:44:37.162Z,19.00
2018-12-27T00:47:05.530Z,20.05
2018-12-27T00:49:33.864Z,18.30
2018-12-27T00:52:02.221Z,19.17
2018-12-27T00:54:30.561Z,18.67
2018-12-27T00:56:58.909Z,17.97
2018-12-27T00:59:27.233Z,19.37
2018-12-27T01:01:55.610Z,18.27
2018-12-27T01:04:23.975Z,18.57
2018-12-27T01:06:52.322Z,19.23
2018-12-27T01:09:21.795Z,18.17
2018-12-27T01:11:50.148Z,18.30
2018-12-27T01:14:18.770Z,17.20
2018-12-27T01:16:47.098Z,17.80
2018-12-27T01:19:15.639Z,17.47
2018-12-27T01:21:43.983Z,16.83
2018-12-27T01:24:12.534Z,18.92
2018-12-27T01:26:40.927Z,17.67
2018-12-27T01:29:09.246Z,18.00
2018-12-27T01:31:37.624Z,17.70
2018-12-27T01:34:05.955Z,17.20
2018-12-27T01:36:34.297Z,15.90
2018-12-27T01:39:03.213Z,16.40
2018-12-27T01:41:31.614Z,17.43
2018-12-27T01:43:59.945Z,16.03
2018-12-27T01:46:28.930Z,16.67
2018-12-27T01:48:57.350Z,16.30
2018-12-27T01:51:25.696Z,15.77
2018-12-27T01:53:54.038Z,18.37
2018-12-27T01:56:22.361Z,16.03
2018-12-27T01:58:50.719Z,15.53
2018-12-27T02:01:19.049Z,15.90
2018-12-27T02:03:47.427Z,14.27
2018-12-27T02:06:15.753Z,16.50
2018-12-27T02:08:44.136Z,15.47
2018-12-27T02:11:12.692Z,16.07
2018-12-27T02:13:41.031Z,14.30
2018-12-27T02:16:09.377Z,15.20
2018-12-27T02:18:37.712Z,13.00
2018-12-27T02:21:06.082Z,13.40
2018-12-27T02:23:34.457Z,13.90
2018-12-27T02:26:02.760Z,14.93
2018-12-27T02:28:31.119Z,16.17
2018-12-27T02:30:59.477Z,15.72
2018-12-27T02:33:35.051Z,16.20
2018-12-27T02:35:58.135Z,12.70
2018-12-27T02:38:26.474Z,14.03
2018-12-27T02:40:54.798Z,16.60
2018-12-27T02:43:23.135Z,15.90
2018-12-27T02:45:51.535Z,16.40
2018-12-27T02:48:19.881Z,15.93
2018-12-27T02:50:48.365Z,14.50
2018-12-27T02:53:16.991Z,14.47
2018-12-27T02:55:45.347Z,16.37
2018-12-27T02:58:14.273Z,15.50
2018-12-27T03:00:42.647Z,16.10
2018-12-27T03:03:10.975Z,14.90
2018-12-27T03:05:39.360Z,15.50
2018-12-27T03:08:07.762Z,15.93
2018-12-27T03:10:36.117Z,15.50
2018-12-27T03:13:04.493Z,15.30
2018-12-27T03:15:32.825Z,13.97
2018-12-27T03:18:02.141Z,15.40
2018-12-27T03:20:30.627Z,14.93
2018-12-27T03:22:58.967Z,15.13
2018-12-27T03:25:27.309Z,14.80
2018-12-27T03:27:55.654Z,15.33
2018-12-27T03:30:24.005Z,13.87
2018-12-27T03:32:52.431Z,15.93
2018-12-27T03:35:20.905Z,16.30
2018-12-27T03:37:49.274Z,15.03
2018-12-27T03:40:19.276Z,15.57
2018-12-27T03:42:47.578Z,13.32
2018-12-27T03:45:16.765Z,15.50
2018-12-27T03:47:45.066Z,14.00
2018-12-27T03:50:13.396Z,15.37
2018-12-27T03:52:41.734Z,14.13
2018-12-27T03:55:10.084Z,14.10
2018-12-27T03:57:38.430Z,13.43
2018-12-27T04:00:06.781Z,14.00
2018-12-27T04:02:35.109Z,16.00
2018-12-27T04:05:03.455Z,14.07
2018-12-27T04:07:31.802Z,15.33
2018-12-27T04:10:00.232Z,16.60
2018-12-27T04:12:28.623Z,15.15
2018-12-27T04:15:00.960Z,15.20
2018-12-27T04:17:29.290Z,13.40
2018-12-27T04:19:57.655Z,14.65
2018-12-27T04:22:26.053Z,13.80
2018-12-27T04:24:54.505Z,15.13
2018-12-27T04:27:22.869Z,16.50
2018-12-27T04:29:51.195Z,15.57
2018-12-27T04:32:19.773Z,15.70
2018-12-27T04:34:48.151Z,15.33
2018-12-27T04:37:17.040Z,17.60
2018-12-27T04:39:45.359Z,15.20
2018-12-27T04:42:14.394Z,14.70
2018-12-27T04:44:42.784Z,14.33
2018-12-27T04:47:11.137Z,15.60
2018-12-27T04:49:39.474Z,15.50
2018-12-27T04:52:07.826Z,16.17
2018-12-27T04:54:36.146Z,15.27
2018-12-27T04:57:04.507Z,13.80
2018-12-27T04:59:32.853Z,14.50
2018-12-27T05:02:01.181Z,13.40
2018-12-27T05:04:29.532Z,13.83
2018-12-27T05:06:57.881Z,15.20
2018-12-27T05:09:26.216Z,14.33
2018-12-27T05:11:54.600Z,15.63
2018-12-27T05:14:22.956Z,14.30
2018-12-27T05:16:51.293Z,15.65
2018-12-27T05:19:19.908Z,14.67
2018-12-27T05:21:48.253Z,13.53
2018-12-27T05:24:16.596Z,13.47
2018-12-27T05:26:44.941Z,15.95
2018-12-27T05:29:13.716Z,15.10
2018-12-27T05:31:42.038Z,16.50
2018-12-27T05:34:10.373Z,15.70
2018-12-27T05:36:39.614Z,15.63
2018-12-27T05:39:07.987Z,15.80
2018-12-27T05:41:36.299Z,16.00
2018-12-27T05:44:04.666Z,15.10
2018-12-27T05:46:32.998Z,15.30
2018-12-27T05:49:01.368Z,14.77
2018-12-27T05:51:29.735Z,15.15
2018-12-27T05:53:58.076Z,15.90
2018-12-27T05:56:26.407Z,16.83
2018-12-27T05:58:54.796Z,13.97
2018-12-27T06:01:23.132Z,16.00
2018-12-27T06:03:51.493Z,15.90
2018-12-27T06:06:19.903Z,15.63
2018-12-27T06:08:48.350Z,15.40
2018-12-27T06:11:16.701Z,14.67
2018-12-27T06:13:45.043Z,15.97
2018-12-27T06:16:13.578Z,15.50
2018-12-27T06:18:41.921Z,15.55
2018-12-27T06:21:10.274Z,15.60
2018-12-27T06:23:38.635Z,14.85
2018-12-27T06:26:07.013Z,15.95
2018-12-27T06:28:35.444Z,14.60
2018-12-27T06:31:03.803Z,15.73
2018-12-27T06:33:32.230Z,15.07
2018-12-27T06:36:00.573Z,17.73
2018-12-27T06:38:28.925Z,16.73
2018-12-27T06:40:57.322Z,17.63
2018-12-27T06:43:25.651Z,19.67
2018-12-27T06:45:53.992Z,16.40
2018-12-27T06:48:22.311Z,17.33
2018-12-27T06:50:50.674Z,17.50
2018-12-27T06:53:19.691Z,19.55
2018-12-27T06:55:48.038Z,17.90
2018-12-27T06:58:16.384Z,16.37
2018-12-27T07:00:44.750Z,15.90
2018-12-27T07:03:13.093Z,16.20
2018-12-27T07:05:41.437Z,18.73
2018-12-27T07:08:10.198Z,17.27
2018-12-27T07:10:38.538Z,16.93
2018-12-27T07:13:06.890Z,18.00
2018-12-27T07:15:35.208Z,16.60
2018-12-27T07:18:03.551Z,16.77
2018-12-27T07:20:31.886Z,19.00
2018-12-27T07:23:00.222Z,18.30
2018-12-27T07:25:28.556Z,19.12
2018-12-27T07:27:56.942Z,18.10
2018-12-27T07:30:25.269Z,17.53
2018-12-27T07:32:53.627Z,17.63
2018-12-27T07:35:21.958Z,19.30
2018-12-27T07:37:50.321Z,19.60
2018-12-27T07:40:18.641Z,18.80
2018-12-27T07:42:47.004Z,20.07
2018-12-27T07:45:15.327Z,19.97
2018-12-27T07:47:43.698Z,19.02
2018-12-27T07:50:12.680Z,19.17
2018-12-27T07:52:41.012Z,21.33
2018-12-27T07:55:10.134Z,19.67
2018-12-27T07:57:38.444Z,19.57
2018-12-27T08:00:06.870Z,20.33
2018-12-27T08:02:35.209Z,19.77
2018-12-27T08:05:04.479Z,20.70
2018-12-27T08:07:32.928Z,18.37
2018-12-27T08:10:01.261Z,19.13
2018-12-27T08:12:29.597Z,18.27
2018-12-27T08:14:57.932Z,19.90
2018-12-27T08:17:26.248Z,19.40
2018-12-27T08:19:54.582Z,19.13
2018-12-27T08:22:22.928Z,20.00
2018-12-27T08:24:51.279Z,21.97
2018-12-27T08:27:19.601Z,21.57
2018-12-27T08:29:47.941Z,22.40
2018-12-27T08:32:16.269Z,21.20
2018-12-27T08:34:44.630Z,21.70
2018-12-27T08:37:12.938Z,22.23
2018-12-27T08:39:41.324Z,20.62
2018-12-27T08:42:09.869Z,18.17
2018-12-27T08:44:38.500Z,19.77
2018-12-27T08:47:06.829Z,19.10
2018-12-27T08:49:35.328Z,20.80
2018-12-27T08:52:03.673Z,20.50
2018-12-27T08:54:32.016Z,20.63
2018-12-27T08:57:00.381Z,20.43
2018-12-27T08:59:28.830Z,24.17
2018-12-27T09:01:57.186Z,22.33
2018-12-27T09:04:25.529Z,22.05
2018-12-27T09:06:53.842Z,19.70
2018-12-27T09:09:22.168Z,22.07
2018-12-27T09:11:50.533Z,22.48
2018-12-27T09:14:18.915Z,22.40
2018-12-27T09:16:47.256Z,17.70
2018-12-27T09:19:15.586Z,20.12
2018-12-27T09:21:44.435Z,20.47
2018-12-27T09:24:12.741Z,18.73
2018-12-27T09:26:41.102Z,20.10
2018-12-27T09:29:09.621Z,20.27
2018-12-27T09:31:39.267Z,21.42
2018-12-27T09:34:07.961Z,18.50
2018-12-27T09:36:36.292Z,19.40
2018-12-27T09:39:06.136Z,20.93
2018-12-27T09:41:34.471Z,20.33
2018-12-27T09:44:02.873Z,22.90
2018-12-27T09:46:31.240Z,21.97
2018-12-27T09:48:59.595Z,21.03
2018-12-27T09:51:27.930Z,21.07
2018-12-27T09:53:57.166Z,21.57
2018-12-27T09:56:25.501Z,21.53
2018-12-27T09:58:53.855Z,21.97
2018-12-27T10:01:22.215Z,18.63
2018-12-27T10:03:50.558Z,17.03
2018-12-27T10:06:18.916Z,17.67
2018-12-27T10:08:47.245Z,18.87
2018-12-27T10:11:15.608Z,18.47
2018-12-27T10:13:43.999Z,19.27
2018-12-27T10:16:12.353Z,17.60
2018-12-27T10:18:40.692Z,18.20
2018-12-27T10:21:09.240Z,18.97
2018-12-27T10:23:37.601Z,19.33
2018-12-27T10:26:05.917Z,18.63
2018-12-27T10:28:34.302Z,18.83
2018-12-27T10:31:02.612Z,19.23
2018-12-27T10:33:31.226Z,17.93
2018-12-27T10:35:59.560Z,19.20
2018-12-27T10:38:28.007Z,17.50
2018-12-27T10:40:56.695Z,19.02
2018-12-27T10:43:25.052Z,19.33
2018-12-27T10:45:53.374Z,18.37
2018-12-27T10:48:21.748Z,17.53
2018-12-27T10:50:50.056Z,16.70
2018-12-27T10:53:18.415Z,16.20
2018-12-27T10:55:46.762Z,17.50
2018-12-27T10:58:15.124Z,16.67
2018-12-27T11:00:44.096Z,17.40
2018-12-27T11:03:13.424Z,15.53
2018-12-27T11:05:48.408Z,16.75
2018-12-27T11:08:15.199Z,14.70
2018-12-27T11:10:44.150Z,14.67
2018-12-27T11:13:13.563Z,15.00
2018-12-27T11:15:42.560Z,15.23
2018-12-27T11:18:12.759Z,15.10
2018-12-27T11:20:41.691Z,15.90
2018-12-27T11:23:10.187Z,14.87
2018-12-27T11:25:38.665Z,14.60
2018-12-27T11:28:07.190Z,14.63
2018-12-27T11:30:35.506Z,15.30
2018-12-27T11:33:04.006Z,14.77
2018-12-27T11:35:32.317Z,14.58
2018-12-27T11:38:00.653Z,13.30
2018-12-27T11:40:29.013Z,14.73
2018-12-27T11:42:57.346Z,14.77
2018-12-27T11:45:25.707Z,14.17
2018-12-27T11:47:54.069Z,15.17
2018-12-27T11:50:22.453Z,14.30
2018-12-27T11:52:50.778Z,14.53
2018-12-27T11:55:19.214Z,14.10
2018-12-27T11:57:47.588Z,14.13
2018-12-27T12:00:15.919Z,14.90
2018-12-27T12:02:44.245Z,14.87
2018-12-27T12:05:13.441Z,16.05
2018-12-27T12:07:41.773Z,17.03
2018-12-27T12:10:14.361Z,18.82
2018-12-27T12:12:42.694Z,18.90
2018-12-27T12:15:11.532Z,18.80
2018-12-27T12:17:40.174Z,20.37
2018-12-27T12:20:09.395Z,22.50
2018-12-27T12:22:37.845Z,22.27
2018-12-27T12:25:06.305Z,23.23
2018-12-27T12:27:34.724Z,22.37
2018-12-27T12:30:03.581Z,22.70
2018-12-27T12:32:31.905Z,23.73
2018-12-27T12:35:00.241Z,23.80
2018-12-27T12:37:28.894Z,24.70
2018-12-27T12:39:57.246Z,24.93
2018-12-27T12:42:32.899Z,23.70
2018-12-27T12:44:55.907Z,23.73
2018-12-27T12:47:24.251Z,23.03
2018-12-27T12:49:52.593Z,22.90
2018-12-27T12:52:21.011Z,24.13
2018-12-27T12:54:49.333Z,22.37
2018-12-27T12:57:17.688Z,22.80
2018-12-27T12:59:46.047Z,24.03
2018-12-27T13:02:14.409Z,21.63
2018-12-27T13:04:42.739Z,22.67
2018-12-27T13:07:11.166Z,23.73
2018-12-27T13:09:39.571Z,21.33
2018-12-27T13:12:08.208Z,20.73
2018-12-27T13:14:36.515Z,21.30
2018-12-27T13:17:04.858Z,20.03
2018-12-27T13:19:33.182Z,20.90
2018-12-27T13:22:02.612Z,19.40
2018-12-27T13:24:30.953Z,18.67
2018-12-27T13:26:59.297Z,17.50
2018-12-27T13:29:27.760Z,21.63
2018-12-27T13:31:56.102Z,20.12
2018-12-27T13:34:24.446Z,18.87
2018-12-27T13:36:52.803Z,19.97
2018-12-27T13:39:21.139Z,18.42
2018-12-27T13:41:50.387Z,18.37
2018-12-27T13:44:18.712Z,18.20
2018-12-27T13:46:47.050Z,17.60
2018-12-27T13:49:15.368Z,19.40
2018-12-27T13:51:43.716Z,18.70
2018-12-27T13:54:12.073Z,18.03
2018-12-27T13:56:40.422Z,20.90
2018-12-27T13:59:09.154Z,17.10
2018-12-27T14:01:37.852Z,18.50
2018-12-27T14:04:06.238Z,19.40
2018-12-27T14:06:34.551Z,19.53
2018-12-27T14:09:04.937Z,18.80
2018-12-27T14:11:33.309Z,18.30
2018-12-27T14:14:01.762Z,17.48
2018-12-27T14:16:30.113Z,17.80
2018-12-27T14:18:58.457Z,19.13
2018-12-27T14:21:26.785Z,18.93
2018-12-27T14:23:55.225Z,19.30
2018-12-27T14:26:23.545Z,20.47
2018-12-27T14:28:51.979Z,19.60
2018-12-27T14:31:20.306Z,19.70
2018-12-27T14:33:48.738Z,20.60
2018-12-27T14:36:17.066Z,19.70
2018-12-27T14:38:46.452Z,20.27
2018-12-27T14:41:14.928Z,21.50
2018-12-27T14:43:43.317Z,20.67
2018-12-27T14:46:11.636Z,19.70
2018-12-27T14:48:40.040Z,20.52
2018-12-27T14:51:09.359Z,19.52
2018-12-27T14:53:37.828Z,19.50
2018-12-27T14:56:06.550Z,20.07
2018-12-27T14:58:34.967Z,21.35
2018-12-27T15:01:03.323Z,20.50
2018-12-27T15:03:31.658Z,19.50
2018-12-27T15:05:59.994Z,20.15
2018-12-27T15:08:28.393Z,21.10
2018-12-27T15:10:56.727Z,18.50
2018-12-27T15:13:25.386Z,17.67
2018-12-27T15:15:53.685Z,15.67
2018-12-27T15:18:22.046Z,16.30
2018-12-27T15:20:50.413Z,16.23
2018-12-27T15:23:18.742Z,18.07
2018-12-27T15:25:47.105Z,18.37
2018-12-27T15:28:15.502Z,17.70
2018-12-27T15:30:43.856Z,16.90
2018-12-27T15:33:13.838Z,16.10
2018-12-27T15:35:42.329Z,17.20
2018-12-27T15:38:10.846Z,15.27
2018-12-27T15:40:39.211Z,16.60
2018-12-27T15:43:07.833Z,15.30
2018-12-27T15:45:36.148Z,29.50
2018-12-27T15:48:04.482Z,17.57
2018-12-27T15:50:33.104Z,19.50
2018-12-27T15:53:01.427Z,16.80
2018-12-27T15:55:29.794Z,14.97
2018-12-27T15:57:58.136Z,16.80
2018-12-27T16:00:26.475Z,17.90
2018-12-27T16:02:54.817Z,17.37
2018-12-27T16:05:23.274Z,17.27
2018-12-27T16:07:51.648Z,17.65
2018-12-27T16:10:20.450Z,16.80
2018-12-27T16:12:48.772Z,15.90
2018-12-27T16:15:17.111Z,18.00
2018-12-27T16:17:45.858Z,17.80
2018-12-27T16:20:14.532Z,17.60
2018-12-27T16:22:42.923Z,17.35
2018-12-27T16:25:11.298Z,15.75
2018-12-27T16:27:39.645Z,23.27
2018-12-27T16:30:08.263Z,16.90
2018-12-27T16:32:36.919Z,15.87
2018-12-27T16:35:05.353Z,17.07
2018-12-27T16:37:33.720Z,16.80
2018-12-27T16:40:02.187Z,16.93
2018-12-27T16:42:30.616Z,16.60
2018-12-27T16:44:58.940Z,16.73
2018-12-27T16:47:27.298Z,17.10
2018-12-27T16:49:55.636Z,19.37
2018-12-27T16:52:24.006Z,18.87
2018-12-27T16:54:52.392Z,18.57
2018-12-27T16:57:20.749Z,17.90
2018-12-27T16:59:49.083Z,17.50
2018-12-27T17:02:17.697Z,17.60
2018-12-27T17:04:46.015Z,16.33
2018-12-27T17:07:16.160Z,19.13
2018-12-27T17:09:44.678Z,17.83
2018-12-27T17:12:13.027Z,16.97
2018-12-27T17:14:41.373Z,17.73
2018-12-27T17:17:09.778Z,16.60
2018-12-27T17:19:38.096Z,17.13
2018-12-27T17:22:06.947Z,16.90
2018-12-27T17:24:35.328Z,18.13
2018-12-27T17:27:04.566Z,16.65
2018-12-27T17:29:32.913Z,20.50
2018-12-27T17:32:01.277Z,18.67
2018-12-27T17:34:29.641Z,19.02
2018-12-27T17:36:58.001Z,19.57
2018-12-27T17:39:26.359Z,17.43
2018-12-27T17:41:54.738Z,17.03
2018-12-27T17:44:23.042Z,16.97
2018-12-27T17:46:51.370Z,17.30
2018-12-27T17:49:23.477Z,18.40
2018-12-27T17:51:51.803Z,18.67
2018-12-27T17:54:20.259Z,17.00
2018-12-27T17:56:48.650Z,19.00
2018-12-27T17:59:17.176Z,20.12
2018-12-27T18:01:45.490Z,18.70
2018-12-27T18:04:14.241Z,20.73
2018-12-27T18:06:42.574Z,19.40
2018-12-27T18:09:10.930Z,19.60
2018-12-27T18:11:39.245Z,18.37
2018-12-27T18:14:07.586Z,19.70
2018-12-27T18:16:35.915Z,18.17
2018-12-27T18:19:05.173Z,18.48
2018-12-27T18:21:33.496Z,18.83
2018-12-27T18:24:01.923Z,19.47
2018-12-27T18:26:30.329Z,18.03
2018-12-27T18:28:58.688Z,20.70
2018-12-27T18:31:27.052Z,17.48
2018-12-27T18:33:55.420Z,19.70
2018-12-27T18:36:23.725Z,19.33
2018-12-27T18:38:52.150Z,20.57
2018-12-27T18:41:20.532Z,19.40
2018-12-27T18:43:48.893Z,20.97
2018-12-27T18:46:17.208Z,18.52
2018-12-27T18:48:45.585Z,20.63
2018-12-27T18:51:14.382Z,20.20
2018-12-27T18:53:42.766Z,20.27
2018-12-27T18:56:11.607Z,20.17
2018-12-27T18:58:39.934Z,20.17
2018-12-27T19:01:08.371Z,20.60
2018-12-27T19:03:36.694Z,19.00
2018-12-27T19:06:06.303Z,19.57
2018-12-27T19:08:34.636Z,16.93
2018-12-27T19:11:11.343Z,17.83
2018-12-27T19:13:39.685Z,19.60
2018-12-27T19:16:08.037Z,17.80
2018-12-27T19:18:36.371Z,19.20
2018-12-27T19:21:04.836Z,17.80
2018-12-27T19:23:33.170Z,18.07
2018-12-27T19:26:01.525Z,19.57
2018-12-27T19:28:29.929Z,18.60
2018-12-27T19:30:58.268Z,18.17
2018-12-27T19:33:26.709Z,17.90
2018-12-27T19:35:55.042Z,18.60
2018-12-27T19:38:23.412Z,18.17
2018-12-27T19:40:51.967Z,19.52
2018-12-27T19:43:20.328Z,18.90
2018-12-27T19:46:15.750Z,20.63
2018-12-27T19:48:44.153Z,20.43
2018-12-27T19:51:12.532Z,19.60
2018-12-27T19:53:40.979Z,20.13
2018-12-27T19:56:09.339Z,20.27
2018-12-27T19:58:37.733Z,20.30
2018-12-27T20:01:06.094Z,20.30
2018-12-27T20:03:34.429Z,21.47
2018-12-27T20:06:02.772Z,20.97
2018-12-27T20:08:31.092Z,21.75
2018-12-27T20:10:59.519Z,21.33
2018-12-27T20:13:27.850Z,21.00
2018-12-27T20:15:56.193Z,20.20
2018-12-27T20:18:24.538Z,20.17
2018-12-27T20:20:52.895Z,21.70
2018-12-27T20:23:21.217Z,20.07
2018-12-27T20:25:50.581Z,20.10
2018-12-27T20:28:18.934Z,22.30
2018-12-27T20:30:47.273Z,20.97
2018-12-27T20:33:16.205Z,22.97
2018-12-27T20:35:44.536Z,22.43
2018-12-27T20:38:12.890Z,21.67
2018-12-27T20:40:41.297Z,20.93
2018-12-27T20:43:09.649Z,22.20
2018-12-27T20:45:37.961Z,22.52
2018-12-27T20:48:06.302Z,21.27
2018-12-27T20:50:34.650Z,20.08
2018-12-27T20:53:03.070Z,20.20
2018-12-27T20:55:31.393Z,21.03
2018-12-27T20:57:59.746Z,19.15
2018-12-27T21:00:28.744Z,19.60
2018-12-27T21:02:57.221Z,20.10
2018-12-27T21:05:25.533Z,19.90
2018-12-27T21:07:53.897Z,18.98
2018-12-27T21:10:22.212Z,21.63
2018-12-27T21:12:50.616Z,22.30
2018-12-27T21:15:19.033Z,20.47
2018-12-27T21:17:47.417Z,21.73
2018-12-27T21:20:16.373Z,20.83
2018-12-27T21:22:44.673Z,21.67
2018-12-27T21:25:13.796Z,22.77
2018-12-27T21:27:42.106Z,23.13
2018-12-27T21:30:11.345Z,20.97
2018-12-27T21:32:39.670Z,23.33
2018-12-27T21:35:08.024Z,21.47
2018-12-27T21:37:36.370Z,24.67
2018-12-27T21:40:05.527Z,24.10
2018-12-27T21:42:33.865Z,24.20
2018-12-27T21:45:02.196Z,24.82
2018-12-27T21:47:31.373Z,24.67
2018-12-27T21:49:59.753Z,25.53
2018-12-27T21:52:28.141Z,25.57
2018-12-27T21:54:56.624Z,24.67
2018-12-27T21:57:25.175Z,24.70
2018-12-27T21:59:53.661Z,23.80
2018-12-27T22:02:21.987Z,25.60
2018-12-27T22:04:51.730Z,27.65
2018-12-27T22:07:20.255Z,25.57
2018-12-27T22:09:48.613Z,27.48
2018-12-27T22:12:17.278Z,24.53
2018-12-27T22:14:45.622Z,23.27
2018-12-27T22:17:14.499Z,24.37
2018-12-27T22:19:42.846Z,25.60
2018-12-27T22:22:11.165Z,26.93
2018-12-27T22:24:39.524Z,27.73
2018-12-27T22:27:07.878Z,26.57
2018-12-27T22:29:36.221Z,25.50
2018-12-27T22:32:04.559Z,27.35
2018-12-27T22:34:32.964Z,24.90
2018-12-27T22:37:01.309Z,27.48
2018-12-27T22:39:29.659Z,26.45
2018-12-27T22:41:57.991Z,23.80
2018-12-27T22:44:26.341Z,22.98
2018-12-27T22:46:54.708Z,24.90
2018-12-27T22:49:23.051Z,24.80
2018-12-27T22:51:51.416Z,22.97
2018-12-27T22:54:19.757Z,21.73
2018-12-27T22:56:48.231Z,22.30
2018-12-27T22:59:16.654Z,21.97
2018-12-27T23:01:45.024Z,22.32
2018-12-27T23:04:13.401Z,22.47
2018-12-27T23:06:41.855Z,23.60
2018-12-27T23:09:10.190Z,20.57
2018-12-27T23:11:38.549Z,22.52
2018-12-27T23:14:06.867Z,24.13
2018-12-27T23:16:35.216Z,20.30
2018-12-27T23:19:03.543Z,23.57
2018-12-27T23:21:32.330Z,21.65
2018-12-27T23:24:00.647Z,23.47
2018-12-27T23:26:29.728Z,24.80
2018-12-27T23:28:58.070Z,23.90
2018-12-27T23:31:26.416Z,25.70
2018-12-27T23:33:54.760Z,24.10
2018-12-27T23:36:23.154Z,22.53
2018-12-27T23:38:51.490Z,24.80
2018-12-27T23:41:19.922Z,26.13
2018-12-27T23:43:48.240Z,25.83
2018-12-27T23:46:17.168Z,27.67
2018-12-27T23:48:45.504Z,26.93
2018-12-27T23:51:14.057Z,23.30
2018-12-27T23:53:45.365Z,26.40
2018-12-27T23:56:14.294Z,24.70
2018-12-27T23:58:43.111Z,25.10
